메인 페이지
METAR-TAF:

METAR-TAF

공항 :

청두 솽류 국제공항

청두, 중국

위도: 30-40N, 경도: 104-01E, 고도: 508m

현재 날씨관측

예보는 52분 전, 06:00시(UTC)에 발표되었습니다.
남서4kt남남동풍과 북서풍을 오가는
온도 30°C
습도 46%
기압 1004 hPa
시정 10km 이상
고도 2600ft 상공 구름 보통

METAR: ZUUU 250600Z 22002MPS 150V320 9999 SCT026 30/17 Q1004 NOSIG

시각: 14:52 (06:52 UTC)

예보

예보는 4 시간 40분 전, 02:12시(UTC)에 발표되었습니다.
예보 대상 시간: 25일 06시부터 26일 06시까지 (UTC)
남서6kt
시정: 5000m
고도 5000ft 상공 구름 보통
박무
일시적
25일 20시부터 25일 24시까지 (UTC)
고도 3000ft 상공 구름 조금, 적란운.
고도 3000ft 상공 구름 보통
약한소나기

TAF: ZUUU 250212Z 2506/2606 22003MPS 5000 BR SCT050 TX30/2507Z TN19/2523Z TEMPO 2520/2524 -SHRA FEW030CB SCT030

4,000개 이상의 공항 관측 자료 및 예보 (METAR 및 TAF 보고).

지도상에서 검색 가능한 기상관측소가 노란 점과 빨간 점으로 표시되어 있습니다.

기상관측소 명을 보려면 표시 위로 마우스를 이동하세요.

날씨 관측과 예보를 보려면 클릭하세요.

지도 변경 : 확대하려면 엑스 표시가 있는 녹색 버튼, 축소하려면 빼기 표시가 있는 녹색 버튼, 다음 페이지의 지도를 보려면 녹색 화살표를 클릭하세요.


METAR-TAF: